Lock Haven, PA (17745)

6:23 AM EST on December 05, 2016 (GMT -0500)
APRSWXNET | | Change Station

Elev 609 ft 41.12 °N, 77.51 °W | Updated 27 minutes ago

Light Rain
Light Rain
32 °F
Feels Like 32 °F
N
0
Wind Variable Wind from WNW
Gusts 0.0 mph

Today
High -- | Low -- °F
--% Chance of Precip.
Yesterday
High -- | Low -- °F
Precip. -- in
Pressure 29.93 in
Visibility 10.0 miles
Clouds Scattered Clouds 1200 ft
Overcast 2300 ft
Windchill 32 °F
Dew Point 31 °F
Humidity 95%
Rainfall in
Snow Depth Not available.
7:20 AM 4:41 PM
Waxing Crescent, 31% visible
SPECI KIPT 051106Z AUTO 07003KT 10SM -RA SCT012 OVC023 03/02 A2993 RMK AO2 P0000 T00280022
Pressure 29.93 in
Visibility 10.0 miles
Clouds Scattered Clouds 1200 ft
Overcast 2300 ft
Windchill 32 °F
Dew Point 31 °F
Humidity 95%
Rainfall in
Snow Depth Not available.
7:20 AM 4:41 PM
Waxing Crescent, 31% visible
SPECI KIPT 051106Z AUTO 07003KT 10SM -RA SCT012 OVC023 03/02 A2993 RMK AO2 P0000 T00280022

10-Day Weather Forecast

Almanac

Astronomy

Dec. 05, 2016 Rise Set
Actual Time
Civil Twilight
Nautical Twilight
Astronomical Twilight
Moon
Length of Visible Light
Length of Day
Tomorrow will be .
, % of the Moon is Illuminated

Today's Extremes

State Highs State Lows

Community

WunderPhotos

Upload Photos

1,955,777 photos uploaded!

WunderBlog® & News

Nearby

Air Quality

  Air Quality AQ Index Pollutant
Not available.

Snow Depth

Station Depth Elevation

Earthquake Activity

City Distance Mag. Time & Date
Minimum magnitude displayed is 2.5.

Coastal Water Temperatures

Place Temperature

Stations

Nearby Weather Stations

Station Location Temp. Windchill Dew Point Humidity Wind Precip. Elev Updated Type
                   

Watches & Warnings

There are currently no watches in effect.